createdAt,value
2019-02-08T00:02:04.886Z,14.23
2019-02-08T00:04:44.843Z,10.60
2019-02-08T00:07:24.872Z,10.53
2019-02-08T00:10:04.884Z,12.57
2019-02-08T00:12:44.880Z,13.70
2019-02-08T00:15:25.185Z,13.17
2019-02-08T00:18:05.265Z,12.77
2019-02-08T00:20:45.480Z,12.30
2019-02-08T00:23:27.266Z,9.03
2019-02-08T00:26:07.842Z,8.90
2019-02-08T00:28:47.962Z,8.93
2019-02-08T00:31:28.055Z,9.60
2019-02-08T00:34:08.127Z,7.90
2019-02-08T00:36:48.310Z,7.97
2019-02-08T00:39:28.532Z,7.70
2019-02-08T00:42:08.499Z,8.37
2019-02-08T00:44:48.567Z,9.00
2019-02-08T00:47:28.846Z,8.77
2019-02-08T00:50:09.157Z,7.57
2019-02-08T00:52:49.250Z,7.70
2019-02-08T00:55:29.216Z,7.17
2019-02-08T00:58:09.400Z,7.80
2019-02-08T01:00:49.525Z,8.27
2019-02-08T01:03:29.725Z,7.33
2019-02-08T01:06:09.966Z,7.50
2019-02-08T01:08:50.145Z,7.50
2019-02-08T01:11:30.286Z,8.00
2019-02-08T01:14:10.318Z,7.93
2019-02-08T01:16:50.492Z,7.77
2019-02-08T01:19:30.664Z,7.87
2019-02-08T01:22:10.820Z,6.97
2019-02-08T01:24:51.308Z,6.67
2019-02-08T01:27:31.344Z,7.63
2019-02-08T01:30:11.597Z,7.40
2019-02-08T01:32:51.668Z,6.80
2019-02-08T01:35:31.806Z,6.80
2019-02-08T01:38:12.168Z,6.87
2019-02-08T01:40:52.153Z,7.23
2019-02-08T01:43:32.324Z,7.13
2019-02-08T01:46:12.300Z,6.87
2019-02-08T01:48:52.288Z,7.27
2019-02-08T01:51:32.677Z,7.33
2019-02-08T01:54:12.479Z,7.80
2019-02-08T01:56:52.756Z,7.40
2019-02-08T01:59:32.929Z,7.20
2019-02-08T02:02:12.964Z,6.37
2019-02-08T02:04:52.768Z,6.20
2019-02-08T02:07:32.981Z,6.00
2019-02-08T02:10:13.336Z,6.17
2019-02-08T02:12:53.308Z,6.00
2019-02-08T02:15:33.608Z,5.73
2019-02-08T02:18:13.595Z,6.17
2019-02-08T02:20:53.637Z,5.53
2019-02-08T02:23:33.716Z,5.30
2019-02-08T02:26:14.040Z,5.30
2019-02-08T02:28:54.406Z,4.43
2019-02-08T02:31:34.693Z,4.50
2019-02-08T02:34:14.920Z,4.87
2019-02-08T02:36:55.607Z,3.80
2019-02-08T02:39:35.442Z,3.80
2019-02-08T02:42:15.521Z,4.03
2019-02-08T02:44:55.545Z,3.73
2019-02-08T02:47:35.747Z,4.07
2019-02-08T02:53:15.083Z,3.80
2019-02-08T02:55:55.179Z,3.70
2019-02-08T02:58:35.336Z,4.07
2019-02-08T03:01:15.469Z,4.17
2019-02-08T03:03:55.719Z,4.47
2019-02-08T03:06:36.019Z,4.50
2019-02-08T03:09:15.823Z,4.90
2019-02-08T03:11:56.922Z,4.73
2019-02-08T03:14:37.086Z,4.70
2019-02-08T03:17:17.209Z,4.40
2019-02-08T03:19:57.221Z,4.57
2019-02-08T03:22:37.407Z,4.60
2019-02-08T03:25:17.480Z,4.70
2019-02-08T03:27:57.352Z,9.17
2019-02-08T03:33:36.766Z,16.53
2019-02-08T03:36:16.472Z,15.40
2019-02-08T03:38:56.669Z,13.73
2019-02-08T03:41:36.928Z,12.70
2019-02-08T03:44:17.192Z,14.17
2019-02-08T03:46:57.241Z,13.07
2019-02-08T03:49:37.263Z,13.27
2019-02-08T03:52:17.329Z,11.97
2019-02-08T03:54:57.443Z,12.53
2019-02-08T03:57:37.636Z,12.63
2019-02-08T04:00:18.019Z,14.23
2019-02-08T04:02:57.863Z,15.03
2019-02-08T04:05:38.176Z,16.57
2019-02-08T04:08:18.360Z,16.30
2019-02-08T04:10:58.392Z,16.87
2019-02-08T04:13:38.580Z,21.33
2019-02-08T04:16:18.689Z,21.87
2019-02-08T04:18:59.147Z,21.00
2019-02-08T04:21:39.228Z,19.40
2019-02-08T04:24:19.709Z,20.50
2019-02-08T04:26:59.653Z,22.67
2019-02-08T04:29:39.888Z,22.17
2019-02-08T04:32:23.021Z,12.43
2019-02-08T04:35:03.316Z,8.03
2019-02-08T04:37:43.329Z,7.83
2019-02-08T04:40:23.603Z,8.10
2019-02-08T04:43:03.637Z,8.43
2019-02-08T04:45:43.872Z,8.83
2019-02-08T04:48:24.080Z,12.00
2019-02-08T04:51:04.212Z,15.03
2019-02-08T04:53:44.624Z,15.60
2019-02-08T04:59:37.868Z,9.73
2019-02-08T05:02:17.661Z,11.27
2019-02-08T05:07:56.308Z,7.33
2019-02-08T05:10:36.313Z,5.70
2019-02-08T05:13:16.308Z,5.20
2019-02-08T05:15:56.370Z,5.60
2019-02-08T05:18:36.676Z,6.73
2019-02-08T05:21:16.718Z,7.17
2019-02-08T05:23:56.910Z,5.93
2019-02-08T05:26:37.440Z,8.87
2019-02-08T05:29:17.500Z,6.83
2019-02-08T05:31:57.641Z,7.80
2019-02-08T05:34:38.222Z,10.63
2019-02-08T05:37:18.388Z,6.73
2019-02-08T05:39:58.406Z,7.50
2019-02-08T05:42:38.685Z,12.53
2019-02-08T05:45:18.643Z,14.27
2019-02-08T05:47:58.751Z,17.17
2019-02-08T05:50:39.216Z,17.90
2019-02-08T05:53:18.894Z,16.37
2019-02-08T05:55:59.075Z,17.17
2019-02-08T05:58:39.197Z,15.07
2019-02-08T06:01:19.280Z,18.37
2019-02-08T06:03:59.634Z,19.53
2019-02-08T06:06:39.758Z,18.83
2019-02-08T06:09:19.829Z,18.97
2019-02-08T06:11:59.797Z,17.07
2019-02-08T06:14:39.858Z,18.60
2019-02-08T06:17:20.049Z,18.47
2019-02-08T06:20:00.161Z,18.20
2019-02-08T06:22:40.085Z,18.00
2019-02-08T06:25:20.211Z,16.77
2019-02-08T06:28:00.232Z,17.73
2019-02-08T06:30:40.232Z,17.87
2019-02-08T06:33:20.324Z,18.43
2019-02-08T06:36:00.484Z,19.93
2019-02-08T06:38:40.829Z,19.67
2019-02-08T06:41:21.141Z,16.50
2019-02-08T06:44:01.219Z,15.93
2019-02-08T06:46:41.220Z,15.93
2019-02-08T06:49:21.468Z,14.67
2019-02-08T06:52:01.564Z,13.57
2019-02-08T06:54:41.719Z,10.60
2019-02-08T07:00:30.443Z,14.87
2019-02-08T07:03:28.106Z,14.30
2019-02-08T07:06:27.140Z,14.03
2019-02-08T07:12:40.627Z,13.57
2019-02-08T07:15:46.185Z,13.53
2019-02-08T07:18:45.640Z,12.47
2019-02-08T07:21:33.099Z,12.47
2019-02-08T07:24:32.856Z,12.20
2019-02-08T07:27:31.996Z,12.40
2019-02-08T07:30:19.748Z,13.70
2019-02-08T07:33:09.021Z,9.43
2019-02-08T07:36:08.442Z,7.87
2019-02-08T07:39:07.644Z,10.23
2019-02-08T07:42:04.678Z,11.10
2019-02-08T07:44:56.647Z,9.50
2019-02-08T07:47:43.284Z,11.67
2019-02-08T07:50:42.749Z,11.83
2019-02-08T07:53:35.017Z,10.30
2019-02-08T07:56:34.272Z,9.60
2019-02-08T07:59:29.961Z,9.00
2019-02-08T08:02:34.971Z,10.27
2019-02-08T08:05:34.345Z,10.10
2019-02-08T08:08:33.373Z,9.20
2019-02-08T08:11:32.561Z,10.27
2019-02-08T08:14:31.873Z,9.67
2019-02-08T08:17:31.556Z,10.40
2019-02-08T08:20:30.617Z,10.40
2019-02-08T08:23:22.536Z,9.00
2019-02-08T08:26:22.197Z,8.43
2019-02-08T08:29:21.424Z,7.43
2019-02-08T08:32:04.676Z,7.37
2019-02-08T08:34:44.489Z,6.53
2019-02-08T08:37:24.846Z,6.47
2019-02-08T08:40:04.838Z,5.90
2019-02-08T08:42:44.800Z,8.87
2019-02-08T08:45:25.353Z,7.20
2019-02-08T08:48:05.215Z,7.13
2019-02-08T08:50:45.441Z,5.53
2019-02-08T08:53:25.571Z,6.50
2019-02-08T08:56:06.036Z,5.60
2019-02-08T08:58:45.788Z,6.67
2019-02-08T09:01:25.816Z,7.00
2019-02-08T09:04:06.012Z,7.40
2019-02-08T09:06:46.153Z,6.63
2019-02-08T09:09:26.131Z,7.90
2019-02-08T09:12:06.445Z,7.30
2019-02-08T09:14:46.633Z,7.50
2019-02-08T09:17:26.792Z,8.00
2019-02-08T09:20:06.916Z,7.23
2019-02-08T09:22:46.996Z,7.03
2019-02-08T09:25:27.297Z,7.57
2019-02-08T09:35:07.383Z,8.23
2019-02-08T09:37:47.609Z,7.97
2019-02-08T09:40:27.972Z,8.40
2019-02-08T09:43:07.892Z,8.70
2019-02-08T09:45:48.156Z,7.50
2019-02-08T09:48:28.334Z,6.53
2019-02-08T09:51:08.353Z,6.90
2019-02-08T09:53:48.500Z,6.77
2019-02-08T09:56:28.696Z,5.90
2019-02-08T09:59:08.685Z,7.60
2019-02-08T10:01:48.853Z,6.23
2019-02-08T10:04:29.263Z,9.93
2019-02-08T10:07:09.562Z,9.23
2019-02-08T10:09:49.508Z,8.40
2019-02-08T10:12:29.493Z,6.77
2019-02-08T10:15:09.982Z,6.73
2019-02-08T10:17:50.000Z,5.53
2019-02-08T10:20:29.952Z,5.53
2019-02-08T10:23:10.117Z,6.23
2019-02-08T10:25:50.125Z,5.67
2019-02-08T10:28:30.308Z,5.20
2019-02-08T10:31:10.800Z,5.73
2019-02-08T10:33:50.576Z,6.30
2019-02-08T10:36:30.921Z,6.00
2019-02-08T10:39:11.017Z,5.80
2019-02-08T10:41:50.981Z,5.57
2019-02-08T10:44:31.082Z,5.90
2019-02-08T10:47:11.169Z,4.90
2019-02-08T10:49:51.307Z,5.20
2019-02-08T10:52:31.438Z,5.60
2019-02-08T10:55:11.652Z,5.50
2019-02-08T11:01:04.104Z,5.77
2019-02-08T11:03:44.295Z,5.40
2019-02-08T11:06:24.277Z,4.93
2019-02-08T11:09:04.661Z,4.57
2019-02-08T11:11:45.080Z,5.33
2019-02-08T11:14:24.941Z,4.60
2019-02-08T11:17:05.072Z,5.17
2019-02-08T11:19:44.968Z,4.67
2019-02-08T11:22:25.216Z,4.50
2019-02-08T11:25:05.369Z,4.37
2019-02-08T11:27:45.388Z,4.50
2019-02-08T11:30:25.398Z,4.83
2019-02-08T11:33:05.784Z,4.60
2019-02-08T11:35:45.944Z,4.50
2019-02-08T11:38:26.208Z,4.43
2019-02-08T11:41:06.312Z,4.20
2019-02-08T11:43:46.353Z,4.23
2019-02-08T11:46:26.340Z,4.40
2019-02-08T11:49:06.388Z,3.90
2019-02-08T11:51:46.827Z,3.60
2019-02-08T11:54:26.682Z,3.90
2019-02-08T11:57:06.852Z,3.93
2019-02-08T11:59:46.879Z,3.50
2019-02-08T12:02:27.050Z,3.67
2019-02-08T12:05:07.086Z,3.43
2019-02-08T12:07:47.045Z,3.53
2019-02-08T12:10:26.986Z,3.33
2019-02-08T12:13:06.993Z,3.43
2019-02-08T12:15:47.056Z,3.53
2019-02-08T12:18:27.525Z,3.20
2019-02-08T12:21:07.490Z,2.90
2019-02-08T12:23:47.584Z,3.30
2019-02-08T12:26:27.848Z,3.13
2019-02-08T12:29:08.108Z,3.22
2019-02-08T12:31:47.977Z,3.20
2019-02-08T12:34:28.356Z,3.47
2019-02-08T12:37:08.500Z,3.77
2019-02-08T12:39:48.412Z,3.80
2019-02-08T12:42:28.574Z,3.25
2019-02-08T12:45:08.720Z,3.95
2019-02-08T12:47:48.921Z,3.58
2019-02-08T12:50:29.015Z,3.37
2019-02-08T12:53:09.017Z,3.37
2019-02-08T12:55:49.217Z,3.72
2019-02-08T12:58:29.204Z,4.25
2019-02-08T13:01:09.512Z,3.95
2019-02-08T13:03:50.225Z,3.40
2019-02-08T13:06:30.631Z,3.45
2019-02-08T13:09:10.513Z,3.75
2019-02-08T13:11:38.464Z,3.40
2019-02-08T13:14:25.532Z,3.92
2019-02-08T13:17:12.528Z,4.10
2019-02-08T13:19:52.900Z,3.95
2019-02-08T13:22:33.035Z,3.72
2019-02-08T13:25:13.277Z,4.37
2019-02-08T13:27:53.441Z,4.08
2019-02-08T13:30:33.628Z,4.47
2019-02-08T13:33:13.784Z,4.08
2019-02-08T13:35:53.872Z,4.85
2019-02-08T13:38:33.892Z,5.50
2019-02-08T13:41:14.253Z,5.35
2019-02-08T13:43:54.580Z,4.80
2019-02-08T13:46:34.664Z,5.62
2019-02-08T13:49:14.770Z,4.97
2019-02-08T13:51:54.852Z,4.70
2019-02-08T13:54:34.996Z,4.20
2019-02-08T13:57:15.452Z,4.53
2019-02-08T13:59:55.228Z,4.40
2019-02-08T14:02:35.222Z,4.45
2019-02-08T14:05:15.744Z,5.00
2019-02-08T14:07:55.636Z,4.25
2019-02-08T14:10:36.128Z,4.55
2019-02-08T14:13:16.153Z,4.42
2019-02-08T14:15:43.843Z,4.00
2019-02-08T14:18:30.856Z,4.35
2019-02-08T14:21:10.524Z,4.28
2019-02-08T14:23:50.440Z,3.40
2019-02-08T14:26:30.517Z,3.00
2019-02-08T14:29:10.722Z,3.13
2019-02-08T14:31:50.581Z,3.20
2019-02-08T14:34:31.038Z,3.20
2019-02-08T14:37:11.265Z,3.40
2019-02-08T14:39:51.276Z,3.00
2019-02-08T14:42:31.405Z,3.47
2019-02-08T14:45:11.412Z,3.33
2019-02-08T14:47:51.561Z,3.40
2019-02-08T14:50:21.751Z,3.60
2019-02-08T14:53:08.836Z,4.27
2019-02-08T14:55:55.977Z,3.70
2019-02-08T14:58:36.296Z,4.03
2019-02-08T15:01:16.389Z,3.63
2019-02-08T15:03:56.609Z,4.07
2019-02-08T15:06:37.056Z,4.47
2019-02-08T15:09:17.476Z,4.37
2019-02-08T15:11:45.570Z,4.23
2019-02-08T15:14:32.604Z,4.47
2019-02-08T15:17:19.605Z,4.23
2019-02-08T15:19:59.660Z,4.47
2019-02-08T15:22:39.972Z,4.20
2019-02-08T15:25:20.400Z,4.50
2019-02-08T15:28:00.436Z,5.00
2019-02-08T15:30:40.700Z,4.90
2019-02-08T15:33:20.689Z,5.23
2019-02-08T15:36:00.780Z,4.70
2019-02-08T15:38:40.858Z,4.87
2019-02-08T15:41:20.920Z,4.83
2019-02-08T15:44:01.073Z,5.40
2019-02-08T15:46:41.106Z,5.60
2019-02-08T15:49:21.634Z,5.40
2019-02-08T15:52:01.458Z,5.50
2019-02-08T15:54:41.847Z,5.30
2019-02-08T15:57:21.752Z,5.23
2019-02-08T16:00:02.284Z,5.10
2019-02-08T16:02:42.253Z,5.00
2019-02-08T16:05:22.795Z,4.53
2019-02-08T16:08:02.520Z,6.10
2019-02-08T16:10:42.792Z,6.27
2019-02-08T16:13:22.852Z,6.23
2019-02-08T16:16:02.886Z,6.40
2019-02-08T16:18:43.097Z,6.30
2019-02-08T16:21:23.224Z,7.00
2019-02-08T16:24:03.586Z,6.43
2019-02-08T16:26:43.664Z,5.70
2019-02-08T16:29:23.700Z,7.73
2019-02-08T16:32:04.177Z,7.03
2019-02-08T16:34:44.305Z,5.70
2019-02-08T16:37:25.210Z,5.70
2019-02-08T16:40:05.457Z,6.07
2019-02-08T16:42:45.772Z,5.33
2019-02-08T16:45:25.985Z,6.37
2019-02-08T16:48:05.969Z,6.67
2019-02-08T16:50:46.176Z,7.83
2019-02-08T16:53:27.045Z,8.10
2019-02-08T16:55:54.627Z,5.73
2019-02-08T16:58:22.259Z,4.00
2019-02-08T17:00:49.993Z,4.20
2019-02-08T17:03:17.779Z,6.80
2019-02-08T17:05:46.923Z,6.20
2019-02-08T17:08:14.652Z,5.47
2019-02-08T17:10:42.272Z,5.40
2019-02-08T17:13:09.959Z,8.23
2019-02-08T17:15:37.788Z,6.03
2019-02-08T17:18:05.980Z,4.80
2019-02-08T17:20:38.636Z,4.37
2019-02-08T17:23:06.439Z,3.67
2019-02-08T17:25:34.235Z,4.07
2019-02-08T17:28:02.063Z,3.87
2019-02-08T17:30:30.047Z,6.13
2019-02-08T17:32:57.680Z,5.20
2019-02-08T17:35:25.690Z,5.63
2019-02-08T17:37:53.512Z,5.20
2019-02-08T17:40:23.237Z,5.57
2019-02-08T17:42:51.031Z,6.07
2019-02-08T17:45:19.839Z,7.50
2019-02-08T17:47:47.551Z,8.33
2019-02-08T17:50:17.407Z,11.13
2019-02-08T17:52:45.219Z,7.43
2019-02-08T17:55:14.044Z,7.33
2019-02-08T17:57:41.717Z,4.90
2019-02-08T18:00:17.484Z,4.27
2019-02-08T18:02:45.144Z,4.20
2019-02-08T18:05:12.831Z,4.40
2019-02-08T18:07:43.343Z,5.10
2019-02-08T18:10:15.134Z,4.77
2019-02-08T18:12:42.703Z,8.03
2019-02-08T18:15:12.875Z,5.47
2019-02-08T18:17:40.513Z,13.33
2019-02-08T18:20:14.112Z,5.40
2019-02-08T18:22:41.777Z,11.33
2019-02-08T18:25:09.607Z,12.33
2019-02-08T18:27:37.248Z,7.90
2019-02-08T18:30:05.697Z,9.07
2019-02-08T18:32:33.309Z,8.77
2019-02-08T18:35:00.902Z,6.73
2019-02-08T18:37:28.579Z,7.40
2019-02-08T18:39:56.208Z,5.37
2019-02-08T18:42:23.824Z,5.00
2019-02-08T18:44:51.408Z,5.57
2019-02-08T18:47:19.123Z,4.80
2019-02-08T18:49:46.816Z,4.43
2019-02-08T18:52:14.447Z,4.77
2019-02-08T18:54:42.033Z,4.47
2019-02-08T18:57:09.660Z,4.50
2019-02-08T18:59:37.262Z,4.40
2019-02-08T19:02:05.020Z,4.10
2019-02-08T19:04:32.672Z,3.50
2019-02-08T19:07:00.585Z,3.90
2019-02-08T19:09:28.196Z,3.83
2019-02-08T19:11:55.776Z,3.80
2019-02-08T19:14:23.352Z,3.50
2019-02-08T19:16:51.152Z,3.33
2019-02-08T19:19:18.791Z,3.37
2019-02-08T19:21:46.552Z,3.70
2019-02-08T19:24:14.176Z,3.90
2019-02-08T19:26:41.861Z,4.10
2019-02-08T19:29:09.555Z,6.70
2019-02-08T19:31:37.986Z,6.37
2019-02-08T19:34:05.659Z,6.10
2019-02-08T19:36:33.282Z,5.90
2019-02-08T19:39:00.885Z,5.60
2019-02-08T19:41:28.542Z,8.37
2019-02-08T19:43:56.140Z,15.17
2019-02-08T19:46:23.744Z,8.77
2019-02-08T19:48:51.359Z,7.10
2019-02-08T19:51:19.204Z,15.33
2019-02-08T19:53:46.988Z,7.23
2019-02-08T19:56:14.614Z,5.73
2019-02-08T19:58:42.237Z,4.67
2019-02-08T20:01:09.840Z,4.67
2019-02-08T20:03:37.436Z,4.40
2019-02-08T20:06:05.620Z,4.80
2019-02-08T20:08:33.568Z,4.77
2019-02-08T20:11:01.148Z,4.13
2019-02-08T20:13:48.192Z,4.37
2019-02-08T20:16:35.192Z,4.30
2019-02-08T20:19:22.307Z,4.37
2019-02-08T20:22:02.444Z,4.40
2019-02-08T20:24:42.800Z,4.20
2019-02-08T20:27:22.804Z,4.87
2019-02-08T20:30:03.222Z,5.30
2019-02-08T20:32:42.961Z,4.40
2019-02-08T20:35:23.179Z,4.63
2019-02-08T20:38:03.572Z,4.63
2019-02-08T20:40:43.403Z,4.27
2019-02-08T20:43:23.612Z,4.87
2019-02-08T20:46:03.668Z,4.97
2019-02-08T20:48:31.336Z,6.10
2019-02-08T20:51:18.476Z,7.00
2019-02-08T20:54:05.462Z,10.67
2019-02-08T20:56:46.088Z,11.27
2019-02-08T20:59:26.162Z,10.73
2019-02-08T21:02:06.165Z,9.77
2019-02-08T21:04:46.361Z,9.23
2019-02-08T21:07:26.521Z,8.53
2019-02-08T21:10:06.973Z,9.23
2019-02-08T21:12:47.417Z,9.27
2019-02-08T21:15:27.364Z,8.77
2019-02-08T21:18:07.416Z,9.43
2019-02-08T21:20:47.626Z,10.50
2019-02-08T21:23:27.716Z,9.10
2019-02-08T21:26:07.978Z,7.40
2019-02-08T21:28:48.164Z,8.57
2019-02-08T21:31:28.225Z,7.40
2019-02-08T21:34:08.320Z,6.10
2019-02-08T21:36:48.395Z,5.90
2019-02-08T21:39:28.381Z,4.60
2019-02-08T21:42:08.423Z,5.07
2019-02-08T21:44:48.884Z,4.33
2019-02-08T21:47:28.986Z,4.17
2019-02-08T21:50:08.976Z,4.37
2019-02-08T21:52:49.116Z,4.80
2019-02-08T21:55:29.247Z,4.40
2019-02-08T21:58:09.636Z,4.87
2019-02-08T22:00:49.602Z,4.43
2019-02-08T22:03:30.036Z,4.50
2019-02-08T22:06:09.824Z,4.20
2019-02-08T22:08:50.090Z,4.33
2019-02-08T22:11:30.088Z,4.27
2019-02-08T22:14:10.136Z,4.33
2019-02-08T22:16:50.184Z,4.70
2019-02-08T22:19:30.204Z,4.40
2019-02-08T22:22:10.462Z,3.80
2019-02-08T22:24:50.485Z,3.77
2019-02-08T22:27:30.772Z,3.60
2019-02-08T22:30:10.795Z,3.83
2019-02-08T22:32:50.800Z,3.90
2019-02-08T22:35:30.934Z,3.47
2019-02-08T22:38:11.192Z,3.70
2019-02-08T22:40:51.572Z,3.33
2019-02-08T22:43:31.305Z,3.00
2019-02-08T22:46:11.599Z,3.07
2019-02-08T22:48:51.608Z,2.50
2019-02-08T22:51:31.652Z,3.47
2019-02-08T22:54:12.008Z,4.87
2019-02-08T22:56:52.072Z,4.67
2019-02-08T22:59:32.224Z,4.57
2019-02-08T23:02:12.238Z,5.40
2019-02-08T23:04:52.124Z,6.20
2019-02-08T23:07:32.705Z,6.30
2019-02-08T23:10:12.304Z,6.93
2019-02-08T23:12:52.329Z,6.67
2019-02-08T23:15:32.376Z,5.97
2019-02-08T23:18:12.632Z,5.87
2019-02-08T23:20:52.867Z,4.80
2019-02-08T23:23:33.008Z,5.37
2019-02-08T23:26:13.205Z,6.37
2019-02-08T23:28:53.403Z,6.87
2019-02-08T23:31:33.377Z,6.43
2019-02-08T23:34:13.859Z,5.80
2019-02-08T23:36:53.932Z,6.13
2019-02-08T23:39:34.308Z,6.67
2019-02-08T23:42:14.530Z,6.97
2019-02-08T23:44:54.701Z,6.57
2019-02-08T23:47:34.949Z,5.80
2019-02-08T23:50:15.140Z,4.80
2019-02-08T23:52:55.507Z,3.33
2019-02-08T23:55:35.630Z,3.07
2019-02-08T23:58:15.825Z,2.67
